Terminal Aerodrome Forecast
Issued by NWS New Orleans/Baton Rouge, LA

Home | Current Version | Previous Version | Text Only | Print | Product List | Glossary On
Versions: 1 2 3 4 5 6 7 8 9 10 11 12 13 14 15 16 17
722
FTUS44 KLIX 261310 AAA
TAFBTR
TAF AMD
KBTR 261310Z 2613/2712 VRB03KT 3SM BR OVC003
      TEMPO 2613/2615 5SM BR SCT003 OVC007
     FM261600 15007KT P6SM SCT010 BKN020
     FM261800 15007KT P6SM VCTS SCT035 BKN080CB
     FM270000 16006KT P6SM OVC050
     FM270400 15005KT P6SM BKN020=

USA.gov is the U.S. government's official web portal to all federal, state and local government web resources and services.